createdAt,value
2022-11-22T00:00:41.524Z,58.91
2022-11-22T00:03:09.643Z,58.82
2022-11-22T00:05:37.585Z,58.93
2022-11-22T00:08:05.759Z,59.07
2022-11-22T00:10:33.745Z,59.15
2022-11-22T00:13:03.081Z,59.15
2022-11-22T00:15:31.003Z,59.42
2022-11-22T00:17:58.870Z,59.25
2022-11-22T00:20:26.746Z,59.39
2022-11-22T00:22:54.899Z,59.34
2022-11-22T00:25:22.773Z,59.50
2022-11-22T00:27:50.659Z,59.58
2022-11-22T00:30:20.222Z,59.78
2022-11-22T00:32:48.085Z,59.78
2022-11-22T00:35:16.149Z,59.85
2022-11-22T00:37:43.979Z,60.00
2022-11-22T00:40:12.526Z,60.02
2022-11-22T00:42:40.792Z,60.40
2022-11-22T00:45:09.758Z,60.53
2022-11-22T00:47:39.023Z,60.57
2022-11-22T00:50:07.458Z,60.72
2022-11-22T00:52:35.373Z,60.97
2022-11-22T00:55:03.384Z,61.09
2022-11-22T00:57:32.371Z,61.18
2022-11-22T01:00:00.262Z,61.15
2022-11-22T01:02:28.169Z,61.44
2022-11-22T01:04:57.435Z,61.43
2022-11-22T01:07:25.381Z,61.36
2022-11-22T01:09:53.349Z,61.45
2022-11-22T01:12:21.335Z,61.59
2022-11-22T01:14:49.193Z,61.87
2022-11-22T01:17:17.067Z,61.86
2022-11-22T01:19:44.960Z,61.68
2022-11-22T01:22:14.184Z,61.55
2022-11-22T01:24:42.127Z,61.51
2022-11-22T01:27:10.025Z,61.67
2022-11-22T01:29:37.928Z,61.77
2022-11-22T01:32:06.749Z,62.13
2022-11-22T01:34:34.596Z,62.25
2022-11-22T01:37:02.496Z,62.25
2022-11-22T01:39:32.202Z,62.36
2022-11-22T01:42:00.351Z,62.66
2022-11-22T01:44:29.341Z,62.72
2022-11-22T01:46:57.814Z,62.83
2022-11-22T01:49:29.306Z,62.84
2022-11-22T01:51:59.375Z,62.77
2022-11-22T01:54:27.754Z,62.89
2022-11-22T01:56:59.929Z,63.09
2022-11-22T01:59:28.321Z,62.83
2022-11-22T02:01:56.568Z,62.76
2022-11-22T02:04:24.536Z,63.01
2022-11-22T02:06:56.371Z,62.98
2022-11-22T02:09:24.315Z,62.91
2022-11-22T02:11:53.251Z,62.65
2022-11-22T02:14:23.602Z,62.49
2022-11-22T02:16:51.477Z,62.08
2022-11-22T02:19:20.788Z,61.80
2022-11-22T02:21:50.268Z,61.83
2022-11-22T02:24:20.227Z,61.41
2022-11-22T02:26:49.488Z,61.17
2022-11-22T02:29:17.359Z,61.19
2022-11-22T02:31:46.242Z,60.96
2022-11-22T02:34:14.354Z,60.49
2022-11-22T02:36:44.349Z,60.32
2022-11-22T02:39:13.276Z,60.14
2022-11-22T02:41:41.441Z,59.95
2022-11-22T02:44:11.018Z,59.87
2022-11-22T02:46:49.996Z,59.71
2022-11-22T02:49:19.570Z,59.12
2022-11-22T02:51:47.610Z,58.98
2022-11-22T02:54:15.723Z,59.19
2022-11-22T02:56:43.617Z,59.12
2022-11-22T02:59:12.871Z,58.75
2022-11-22T03:01:40.907Z,58.63
2022-11-22T03:04:08.815Z,57.52
2022-11-22T03:06:36.723Z,56.93
2022-11-22T03:09:04.667Z,56.72
2022-11-22T03:11:32.588Z,56.11
2022-11-22T03:14:00.527Z,56.05
2022-11-22T03:16:30.856Z,56.47
2022-11-22T03:18:58.713Z,56.69
2022-11-22T03:21:26.624Z,56.98
2022-11-22T03:23:55.845Z,57.54
2022-11-22T03:26:24.568Z,57.44
2022-11-22T03:28:52.532Z,57.25
2022-11-22T03:31:20.424Z,57.54
2022-11-22T03:33:49.687Z,57.47
2022-11-22T03:36:17.616Z,57.33
2022-11-22T03:38:45.520Z,57.39
2022-11-22T03:41:13.379Z,57.24
2022-11-22T03:43:41.299Z,56.95
2022-11-22T03:46:15.238Z,56.75
2022-11-22T03:48:43.323Z,56.68
2022-11-22T03:51:12.651Z,57.08
2022-11-22T03:53:40.556Z,57.21
2022-11-22T03:56:08.495Z,57.04
2022-11-22T03:58:36.354Z,56.43
2022-11-22T04:01:04.319Z,56.40
2022-11-22T04:03:32.300Z,56.52
2022-11-22T04:06:00.191Z,56.15
2022-11-22T04:08:29.420Z,55.79
2022-11-22T04:10:57.308Z,55.77
2022-11-22T04:13:45.416Z,55.41
2022-11-22T04:16:12.331Z,54.47
2022-11-22T04:18:40.180Z,54.25
2022-11-22T04:21:25.490Z,53.61
2022-11-22T04:24:08.621Z,53.57
2022-11-22T04:26:37.812Z,53.58
2022-11-22T04:29:10.324Z,53.82
2022-11-22T04:31:55.758Z,53.35
2022-11-22T04:34:23.697Z,53.49
2022-11-22T04:36:51.618Z,53.40
2022-11-22T04:39:27.077Z,53.54
2022-11-22T04:42:16.305Z,53.17
2022-11-22T04:44:43.271Z,53.24
2022-11-22T04:47:11.497Z,53.60
2022-11-22T04:49:39.489Z,53.82
2022-11-22T04:52:24.968Z,53.97
2022-11-22T04:54:54.256Z,54.08
2022-11-22T04:57:22.131Z,54.29
2022-11-22T04:59:50.077Z,54.48
2022-11-22T05:02:18.014Z,54.52
2022-11-22T05:04:50.398Z,55.05
2022-11-22T05:07:18.746Z,54.67
2022-11-22T05:09:46.788Z,54.28
2022-11-22T05:12:16.102Z,54.65
2022-11-22T05:14:43.971Z,54.66
2022-11-22T05:17:13.548Z,54.84
2022-11-22T05:19:46.242Z,55.10
2022-11-22T05:22:16.919Z,55.46
2022-11-22T05:24:43.796Z,55.80
2022-11-22T05:27:11.669Z,55.75
2022-11-22T05:29:45.608Z,56.00
2022-11-22T05:32:13.470Z,56.06
2022-11-22T05:34:41.323Z,56.29
2022-11-22T05:37:09.200Z,57.24
2022-11-22T05:39:37.053Z,57.87
2022-11-22T05:42:05.987Z,57.78
2022-11-22T05:44:34.126Z,57.47
2022-11-22T05:47:03.443Z,57.71
2022-11-22T05:49:31.882Z,57.58
2022-11-22T05:51:59.999Z,57.52
2022-11-22T05:54:27.929Z,57.40
2022-11-22T05:56:55.806Z,57.34
2022-11-22T05:59:23.732Z,57.16
2022-11-22T06:01:51.656Z,57.86
2022-11-22T06:04:21.093Z,58.40
2022-11-22T06:06:48.967Z,58.73
2022-11-22T06:09:16.928Z,59.10
2022-11-22T06:11:44.833Z,59.53
2022-11-22T06:14:12.762Z,59.50
2022-11-22T06:16:40.770Z,59.43
2022-11-22T06:19:09.011Z,59.43
2022-11-22T06:21:38.397Z,59.39
2022-11-22T06:24:07.111Z,59.26
2022-11-22T06:26:39.260Z,59.24
2022-11-22T06:29:07.668Z,59.16
2022-11-22T06:31:35.567Z,58.63
2022-11-22T06:34:03.483Z,58.48
2022-11-22T06:36:32.295Z,58.74
2022-11-22T06:39:03.691Z,58.63
2022-11-22T06:41:33.703Z,58.46
2022-11-22T06:44:03.821Z,58.18
2022-11-22T06:46:31.664Z,57.94
2022-11-22T06:48:59.555Z,57.60
2022-11-22T06:51:28.514Z,58.09
2022-11-22T06:53:56.576Z,58.29
2022-11-22T06:56:27.066Z,58.95
2022-11-22T06:58:55.084Z,59.04
2022-11-22T07:01:23.916Z,59.46
2022-11-22T07:03:51.872Z,59.89
2022-11-22T07:06:20.364Z,60.08
2022-11-22T07:08:48.337Z,60.28
2022-11-22T07:11:17.207Z,60.49
2022-11-22T07:13:46.616Z,60.52
2022-11-22T07:16:15.152Z,60.66
2022-11-22T07:18:43.039Z,60.58
2022-11-22T07:21:13.557Z,60.65
2022-11-22T07:23:42.067Z,60.71
2022-11-22T07:26:10.068Z,60.65
2022-11-22T07:28:38.071Z,60.52
2022-11-22T07:31:08.597Z,60.69
2022-11-22T07:33:36.745Z,60.73
2022-11-22T07:36:05.671Z,60.70
2022-11-22T07:38:33.581Z,60.89
2022-11-22T07:41:01.544Z,60.74
2022-11-22T07:43:29.525Z,60.73
2022-11-22T07:45:59.903Z,60.86
2022-11-22T07:48:29.167Z,60.80
2022-11-22T07:50:57.097Z,60.80
2022-11-22T07:53:24.988Z,61.07
2022-11-22T07:55:52.877Z,60.94
2022-11-22T07:58:20.817Z,61.00
2022-11-22T08:00:48.742Z,61.03
2022-11-22T08:03:17.955Z,60.94
2022-11-22T08:05:47.949Z,61.09
2022-11-22T08:08:16.092Z,60.73
2022-11-22T08:10:45.031Z,60.93
2022-11-22T08:13:12.953Z,60.81
2022-11-22T08:15:40.824Z,61.03
2022-11-22T08:18:08.848Z,60.91
2022-11-22T08:20:36.746Z,61.01
2022-11-22T08:23:06.055Z,61.00
2022-11-22T08:25:34.043Z,61.06
2022-11-22T08:28:01.915Z,61.22
2022-11-22T08:30:29.948Z,61.36
2022-11-22T08:32:57.881Z,61.36
2022-11-22T08:35:25.815Z,61.37
2022-11-22T08:38:02.650Z,61.46
2022-11-22T08:40:35.502Z,61.58
2022-11-22T08:43:05.986Z,61.50
2022-11-22T08:45:34.111Z,61.61
2022-11-22T08:48:02.118Z,61.75
2022-11-22T08:50:30.594Z,61.62
2022-11-22T08:52:58.831Z,61.69
2022-11-22T08:55:26.709Z,61.66
2022-11-22T08:57:59.004Z,61.52
2022-11-22T09:00:32.917Z,61.79
2022-11-22T09:03:01.244Z,61.80
2022-11-22T09:05:29.475Z,61.55
2022-11-22T09:10:45.404Z,61.30
2022-11-22T09:13:14.704Z,61.28
2022-11-22T09:15:42.556Z,61.19
2022-11-22T09:18:10.440Z,61.27
2022-11-22T09:20:38.340Z,61.49
2022-11-22T09:23:06.227Z,61.48
2022-11-22T09:25:34.181Z,61.42
2022-11-22T09:28:03.061Z,61.62
2022-11-22T09:30:32.478Z,61.59
2022-11-22T09:33:00.547Z,61.67
2022-11-22T09:35:28.482Z,61.93
2022-11-22T09:37:56.365Z,62.03
2022-11-22T09:40:24.284Z,62.25
2022-11-22T09:43:07.228Z,62.44
2022-11-22T09:45:51.898Z,62.30
2022-11-22T09:48:26.676Z,61.85
2022-11-22T09:50:57.567Z,61.57
2022-11-22T09:53:27.202Z,61.65
2022-11-22T09:55:55.700Z,61.68
2022-11-22T09:58:28.243Z,61.59
2022-11-22T10:00:59.282Z,61.29
2022-11-22T10:03:29.531Z,61.06
2022-11-22T10:05:59.464Z,61.04
2022-11-22T10:08:36.175Z,61.08
2022-11-22T10:11:05.058Z,61.42
2022-11-22T10:13:35.013Z,61.46
2022-11-22T10:16:06.326Z,61.74
2022-11-22T10:18:38.785Z,62.11
2022-11-22T10:21:08.415Z,62.08
2022-11-22T10:23:36.283Z,62.29
2022-11-22T10:26:05.061Z,62.24
2022-11-22T10:28:35.424Z,61.37
2022-11-22T10:31:07.695Z,61.12
2022-11-22T10:33:41.300Z,61.15
2022-11-22T10:36:20.875Z,61.30
2022-11-22T10:38:59.899Z,61.31
2022-11-22T10:41:35.090Z,60.76
2022-11-22T10:44:08.138Z,60.76
2022-11-22T10:46:41.800Z,60.70
2022-11-22T10:49:15.151Z,60.73
2022-11-22T10:51:46.700Z,60.54
2022-11-22T10:54:16.744Z,60.52
2022-11-22T10:56:50.219Z,60.32
2022-11-22T10:59:28.899Z,60.47
2022-11-22T11:02:02.558Z,60.59
2022-11-22T11:04:31.212Z,60.61
2022-11-22T11:07:12.031Z,60.66
2022-11-22T11:10:10.272Z,61.04
2022-11-22T11:12:33.471Z,61.16
2022-11-22T11:15:03.384Z,61.40
2022-11-22T11:17:36.352Z,61.38
2022-11-22T11:20:06.563Z,61.38
2022-11-22T11:23:12.620Z,61.82
2022-11-22T11:25:30.478Z,61.62
2022-11-22T11:27:59.143Z,61.51
2022-11-22T11:30:27.026Z,61.72
2022-11-22T11:32:57.001Z,61.74
2022-11-22T11:35:27.901Z,62.21
2022-11-22T11:37:56.182Z,62.30
2022-11-22T11:40:28.416Z,63.23
2022-11-22T11:43:17.122Z,63.97
2022-11-22T11:45:45.485Z,62.92
2022-11-22T11:48:29.140Z,61.48
2022-11-22T11:51:12.376Z,60.88
2022-11-22T11:53:40.568Z,61.33
2022-11-22T11:56:22.961Z,61.62
2022-11-22T11:58:52.802Z,60.86
2022-11-22T12:01:21.366Z,60.52
2022-11-22T12:03:58.426Z,60.24
2022-11-22T12:06:29.414Z,59.80
2022-11-22T12:08:57.628Z,59.89
2022-11-22T12:11:28.460Z,59.74
2022-11-22T12:14:19.038Z,59.78
2022-11-22T12:16:46.026Z,59.65
2022-11-22T12:22:29.413Z,59.69
2022-11-22T12:25:31.915Z,59.80
2022-11-22T12:27:57.892Z,60.04
2022-11-22T12:30:25.776Z,60.33
2022-11-22T12:32:58.634Z,60.61
2022-11-22T12:35:27.871Z,60.50
2022-11-22T12:37:56.092Z,60.61
2022-11-22T12:40:26.065Z,60.97
2022-11-22T12:42:55.381Z,60.67
2022-11-22T12:45:25.956Z,60.91
2022-11-22T12:47:53.883Z,60.91
2022-11-22T12:48:23.024Z,60.04
2022-11-22T12:50:25.795Z,60.90
2022-11-22T12:52:57.599Z,61.03
2022-11-22T12:55:26.123Z,61.33
2022-11-22T12:57:55.888Z,60.96
2022-11-22T13:00:25.020Z,61.12
2022-11-22T13:03:00.324Z,60.91
2022-11-22T13:05:29.431Z,61.04
2022-11-22T13:08:01.740Z,60.57
2022-11-22T13:10:33.637Z,60.53
2022-11-22T13:13:02.058Z,60.78
2022-11-22T13:15:30.789Z,61.03
2022-11-22T13:17:58.714Z,61.26
2022-11-22T13:20:27.409Z,60.75
2022-11-22T13:23:05.744Z,60.56
2022-11-22T13:25:47.654Z,59.98
2022-11-22T13:28:16.328Z,59.31
2022-11-22T13:31:04.483Z,59.15
2022-11-22T13:33:32.412Z,58.88
2022-11-22T13:36:25.072Z,58.85
2022-11-22T13:38:55.140Z,58.97
2022-11-22T13:41:24.254Z,59.11
2022-11-22T13:43:53.780Z,58.94
2022-11-22T13:46:53.299Z,58.92
2022-11-22T13:49:47.990Z,58.98
2022-11-22T13:52:30.875Z,59.04
2022-11-22T13:55:22.580Z,59.47
2022-11-22T13:57:50.492Z,59.53
2022-11-22T14:00:42.871Z,58.64
2022-11-22T14:03:35.033Z,58.45
2022-11-22T14:06:16.083Z,58.53
2022-11-22T14:08:44.043Z,58.02
2022-11-22T14:11:22.871Z,59.26
2022-11-22T14:13:53.182Z,58.90
2022-11-22T14:16:33.331Z,57.02
2022-11-22T14:19:07.484Z,56.56
2022-11-22T14:22:01.200Z,55.58
2022-11-22T14:24:35.861Z,55.25
2022-11-22T14:27:09.190Z,55.33
2022-11-22T14:30:03.069Z,55.81
2022-11-22T14:32:41.592Z,55.68
2022-11-22T14:35:18.431Z,55.58
2022-11-22T14:37:48.694Z,54.57
2022-11-22T14:40:31.168Z,54.29
2022-11-22T14:43:02.075Z,53.75
2022-11-22T14:45:38.942Z,53.90
2022-11-22T14:48:12.686Z,53.95
2022-11-22T14:50:43.872Z,53.77
2022-11-22T14:53:23.381Z,53.78
2022-11-22T14:55:52.289Z,53.93
2022-11-22T14:58:25.874Z,53.67
2022-11-22T15:01:12.023Z,53.64
2022-11-22T15:09:10.060Z,54.22
2022-11-22T15:09:18.822Z,53.79
2022-11-22T15:09:53.672Z,54.15
2022-11-22T15:12:45.879Z,54.26
2022-11-22T15:58:58.585Z,57.14
2022-11-22T16:01:26.552Z,57.50
2022-11-22T16:03:55.452Z,57.74
2022-11-22T16:06:26.271Z,57.63
2022-11-22T16:08:56.451Z,57.55
2022-11-22T16:11:27.719Z,57.75
2022-11-22T16:13:55.564Z,57.82
2022-11-22T16:16:27.700Z,57.81
2022-11-22T16:18:55.604Z,57.29
2022-11-22T16:21:32.120Z,57.11
2022-11-22T16:24:12.517Z,57.08
2022-11-22T16:26:40.441Z,57.10
2022-11-22T16:29:29.271Z,57.06
2022-11-22T16:32:01.362Z,56.78
2022-11-22T16:34:29.349Z,56.71
2022-11-22T16:36:59.029Z,56.64
2022-11-22T16:39:26.921Z,56.46
2022-11-22T16:41:54.805Z,56.66
2022-11-22T16:44:22.783Z,56.17
2022-11-22T16:46:50.675Z,56.22
2022-11-22T16:49:19.827Z,55.95
2022-11-22T16:51:47.774Z,56.10
2022-11-22T16:54:18.113Z,56.09
2022-11-22T16:56:46.045Z,56.14
2022-11-22T16:59:13.960Z,55.80
2022-11-22T17:01:42.678Z,56.12
2022-11-22T17:04:16.806Z,55.87
2022-11-22T17:06:44.812Z,56.07
2022-11-22T17:09:12.683Z,56.12
2022-11-22T17:11:41.938Z,56.05
2022-11-22T17:14:11.193Z,56.44
2022-11-22T17:16:39.094Z,56.50
2022-11-22T17:19:14.576Z,56.64
2022-11-22T17:21:54.831Z,56.53
2022-11-22T17:24:23.788Z,56.55
2022-11-22T17:26:53.051Z,56.46
2022-11-22T17:32:11.636Z,56.48
2022-11-22T17:34:39.584Z,56.58
2022-11-22T17:37:11.215Z,56.49
2022-11-22T17:39:39.148Z,56.32
2022-11-22T17:42:08.451Z,56.57
2022-11-22T17:44:36.377Z,56.50
2022-11-22T17:47:04.357Z,56.39
2022-11-22T17:49:32.864Z,56.75
2022-11-22T17:52:01.139Z,56.54
2022-11-22T17:54:29.046Z,56.60
2022-11-22T17:56:56.976Z,56.81
2022-11-22T17:59:26.329Z,56.54
2022-11-22T18:01:54.192Z,56.30
2022-11-22T18:04:22.128Z,56.61
2022-11-22T18:06:50.071Z,56.26
2022-11-22T18:09:17.944Z,56.67
2022-11-22T18:11:45.968Z,56.32
2022-11-22T18:14:14.339Z,56.25
2022-11-22T18:16:43.759Z,56.62
2022-11-22T18:19:12.066Z,56.56
2022-11-22T18:21:40.120Z,56.47
2022-11-22T18:24:08.530Z,56.81
2022-11-22T18:26:40.846Z,56.76
2022-11-22T18:29:39.121Z,56.87
2022-11-22T18:31:59.156Z,57.20
2022-11-22T18:34:29.052Z,57.33
2022-11-22T18:37:01.926Z,57.79
2022-11-22T18:39:31.508Z,58.11
2022-11-22T18:41:59.792Z,58.31
2022-11-22T18:44:27.684Z,58.04
2022-11-22T18:46:55.590Z,58.18
2022-11-22T18:49:24.854Z,58.33
2022-11-22T18:51:52.776Z,58.67
2022-11-22T18:54:22.142Z,58.73
2022-11-22T18:56:50.254Z,58.92
2022-11-22T18:59:18.283Z,58.91
2022-11-22T19:01:46.182Z,59.33
2022-11-22T19:04:15.240Z,59.50
2022-11-22T19:06:45.125Z,59.40
2022-11-22T19:09:13.120Z,59.44
2022-11-22T19:11:41.005Z,59.59
2022-11-22T19:14:09.104Z,59.61
2022-11-22T19:16:37.046Z,59.77
2022-11-22T19:19:04.907Z,59.77
2022-11-22T19:21:32.773Z,60.14
2022-11-22T19:24:02.117Z,60.11
2022-11-22T19:26:30.019Z,60.18
2022-11-22T19:28:58.328Z,60.13
2022-11-22T19:31:29.181Z,60.33
2022-11-22T19:33:57.322Z,60.00
2022-11-22T19:36:32.286Z,60.27
2022-11-22T19:39:03.505Z,60.16
2022-11-22T19:41:31.920Z,60.24
2022-11-22T19:43:59.846Z,60.39
2022-11-22T19:46:27.761Z,60.56
2022-11-22T19:48:56.450Z,60.59
2022-11-22T19:51:24.738Z,60.46
2022-11-22T19:53:54.417Z,60.36
2022-11-22T19:56:23.659Z,60.34
2022-11-22T19:58:52.034Z,60.35
2022-11-22T20:01:20.184Z,60.38
2022-11-22T20:03:51.801Z,60.52
2022-11-22T20:06:20.580Z,60.66
2022-11-22T20:08:49.202Z,60.59
2022-11-22T20:11:20.759Z,60.46
2022-11-22T20:13:52.471Z,60.49
2022-11-22T20:16:22.116Z,60.36
2022-11-22T20:18:54.691Z,60.61
2022-11-22T20:21:22.799Z,60.25
2022-11-22T20:23:51.100Z,60.08
2022-11-22T20:26:19.239Z,59.79
2022-11-22T20:28:47.156Z,59.88
2022-11-22T20:31:17.127Z,59.65
2022-11-22T20:33:45.879Z,59.85
2022-11-22T20:36:14.412Z,59.61
2022-11-22T20:38:45.362Z,59.85
2022-11-22T20:41:13.682Z,59.58
2022-11-22T20:43:41.569Z,59.74
2022-11-22T20:46:10.300Z,59.91
2022-11-22T20:48:40.166Z,59.44
2022-11-22T20:51:09.020Z,59.34
2022-11-22T20:53:37.027Z,59.17
2022-11-22T20:56:04.995Z,59.10
2022-11-22T20:58:33.041Z,59.00
2022-11-22T21:01:00.968Z,58.82
2022-11-22T21:03:28.943Z,58.81
2022-11-22T21:05:58.324Z,58.89
2022-11-22T21:08:26.261Z,59.01
2022-11-22T21:10:54.432Z,58.71
2022-11-22T21:13:22.482Z,58.62
2022-11-22T21:15:50.402Z,58.48
2022-11-22T21:18:26.593Z,58.74
2022-11-22T21:20:54.723Z,58.70
2022-11-22T21:23:24.054Z,58.59
2022-11-22T21:25:51.946Z,58.71
2022-11-22T21:28:19.847Z,58.40
2022-11-22T21:30:47.761Z,58.29
2022-11-22T21:33:15.774Z,58.40
2022-11-22T21:35:45.657Z,58.32
2022-11-22T21:38:14.620Z,58.41
2022-11-22T21:40:53.816Z,58.43
2022-11-22T21:43:23.887Z,58.34
2022-11-22T21:45:52.104Z,58.35
2022-11-22T21:48:20.591Z,58.25
2022-11-22T21:50:49.042Z,58.46
2022-11-22T21:53:17.344Z,58.00
2022-11-22T21:55:50.834Z,58.05
2022-11-22T21:58:19.055Z,57.95
2022-11-22T22:00:47.018Z,57.81
2022-11-22T22:03:15.022Z,57.96
2022-11-22T22:05:44.190Z,57.87
2022-11-22T22:08:12.096Z,57.97
2022-11-22T22:10:40.015Z,57.83
2022-11-22T22:13:09.268Z,57.82
2022-11-22T22:15:38.858Z,58.11
2022-11-22T22:18:06.872Z,57.98
2022-11-22T22:20:34.924Z,58.00
2022-11-22T22:23:02.824Z,58.22
2022-11-22T22:25:30.681Z,58.06
2022-11-22T22:27:58.609Z,58.14
2022-11-22T22:30:27.844Z,58.31
2022-11-22T22:32:55.698Z,58.28
2022-11-22T22:35:23.620Z,58.39
2022-11-22T22:37:52.062Z,58.26
2022-11-22T22:40:19.922Z,58.21
2022-11-22T22:42:47.848Z,58.15
2022-11-22T22:45:15.839Z,58.06
2022-11-22T22:47:45.241Z,57.99
2022-11-22T22:50:13.131Z,57.77
2022-11-22T22:52:40.979Z,57.54
2022-11-22T22:55:10.008Z,57.75
2022-11-22T22:57:37.888Z,57.77
2022-11-22T23:00:06.369Z,57.71
2022-11-22T23:02:34.320Z,57.84
2022-11-22T23:05:03.686Z,57.90
2022-11-22T23:07:31.947Z,58.08
2022-11-22T23:09:59.882Z,57.97
2022-11-22T23:12:27.759Z,58.06
2022-11-22T23:14:55.640Z,58.11
2022-11-22T23:17:23.569Z,58.13
2022-11-22T23:19:51.519Z,58.12
2022-11-22T23:22:25.694Z,58.14
2022-11-22T23:24:53.933Z,58.14
2022-11-22T23:27:21.809Z,58.01
2022-11-22T23:29:49.676Z,58.21
2022-11-22T23:32:17.592Z,58.27
2022-11-22T23:34:45.722Z,58.16
2022-11-22T23:37:13.560Z,58.26
2022-11-22T23:39:42.917Z,58.23
2022-11-22T23:42:10.832Z,58.17
2022-11-22T23:44:38.715Z,58.07
2022-11-22T23:47:06.630Z,58.00
2022-11-22T23:49:34.671Z,58.21
2022-11-22T23:52:02.583Z,58.01
2022-11-22T23:54:30.535Z,58.14
2022-11-22T23:56:59.819Z,58.09
2022-11-22T23:59:27.687Z,58.07
